createdAt,value
2023-01-01T00:01:40.572Z,10.80
2023-01-01T00:04:10.616Z,10.50
2023-01-01T00:06:37.418Z,10.30
2023-01-01T00:09:22.922Z,11.50
2023-01-01T00:11:49.587Z,10.50
2023-01-01T00:14:16.287Z,10.70
2023-01-01T00:16:43.014Z,10.50
2023-01-01T00:19:09.728Z,10.10
2023-01-01T00:21:36.386Z,9.10
2023-01-01T00:24:03.087Z,10.00
2023-01-01T00:26:35.014Z,10.00
2023-01-01T00:29:02.551Z,9.60
2023-01-01T00:31:29.462Z,9.50
2023-01-01T00:33:56.781Z,10.50
2023-01-01T00:36:24.503Z,9.60
2023-01-01T00:38:51.206Z,8.90
2023-01-01T00:41:18.237Z,10.00
2023-01-01T00:46:12.648Z,9.60
2023-01-01T00:48:39.510Z,9.30
2023-01-01T00:51:06.709Z,9.30
2023-01-01T00:56:00.503Z,9.60
2023-01-01T00:58:27.201Z,9.30
2023-01-01T01:00:54.955Z,9.40
2023-01-01T01:03:31.016Z,9.60
2023-01-01T01:06:12.402Z,9.70
2023-01-01T01:08:40.078Z,10.30
2023-01-01T01:13:34.082Z,10.00
2023-01-01T01:16:00.985Z,9.70
2023-01-01T01:18:27.662Z,9.80
2023-01-01T01:20:54.413Z,10.30
2023-01-01T01:23:21.271Z,9.30
2023-01-01T01:25:48.009Z,10.00
2023-01-01T01:28:14.825Z,9.00
2023-01-01T01:30:41.822Z,9.00
2023-01-01T01:33:08.475Z,8.50
2023-01-01T01:35:35.255Z,8.60
2023-01-01T01:38:02.543Z,9.10
2023-01-01T01:40:29.231Z,9.00
2023-01-01T01:42:55.900Z,8.80
2023-01-01T01:45:23.047Z,8.90
2023-01-01T01:47:53.475Z,8.90
2023-01-01T01:50:23.179Z,8.40
2023-01-01T01:52:58.368Z,8.90
2023-01-01T01:55:26.611Z,8.50
2023-01-01T01:57:53.601Z,8.30
2023-01-01T02:00:20.276Z,8.30
2023-01-01T02:02:51.459Z,8.30
2023-01-01T02:05:20.355Z,8.30
2023-01-01T02:07:47.371Z,8.30
2023-01-01T02:10:14.062Z,8.10
2023-01-01T02:12:40.751Z,8.20
2023-01-01T02:15:07.949Z,8.30
2023-01-01T02:17:39.255Z,8.10
2023-01-01T02:20:12.684Z,8.00
2023-01-01T02:23:04.486Z,8.10
2023-01-01T02:25:31.405Z,7.80
2023-01-01T02:28:18.275Z,7.50
2023-01-01T02:30:45.778Z,8.00
2023-01-01T02:33:16.384Z,7.80
2023-01-01T02:35:45.713Z,9.00
2023-01-01T02:38:18.322Z,7.80
2023-01-01T02:40:47.640Z,8.20
2023-01-01T02:43:15.556Z,7.90
2023-01-01T02:45:44.547Z,8.60
2023-01-01T02:48:30.109Z,8.00
2023-01-01T02:50:58.133Z,8.00
2023-01-01T02:53:33.556Z,7.60
2023-01-01T02:56:12.381Z,8.10
2023-01-01T02:59:01.378Z,8.00
2023-01-01T03:01:28.173Z,8.10
2023-01-01T03:04:00.234Z,8.90
2023-01-01T03:06:35.062Z,8.20
2023-01-01T03:09:20.699Z,8.20
2023-01-01T03:11:57.255Z,8.30
2023-01-01T03:14:26.926Z,8.30
2023-01-01T03:16:56.652Z,8.30
2023-01-01T03:19:24.926Z,8.20
2023-01-01T03:21:59.655Z,7.90
2023-01-01T03:24:30.010Z,8.50
2023-01-01T03:27:02.395Z,8.00
2023-01-01T03:29:30.351Z,8.30
2023-01-01T03:31:58.323Z,9.30
2023-01-01T03:34:28.623Z,8.20
2023-01-01T03:36:56.990Z,8.20
2023-01-01T03:39:27.179Z,8.10
2023-01-01T03:42:12.869Z,7.40
2023-01-01T03:44:51.084Z,8.30
2023-01-01T03:47:18.456Z,8.40
2023-01-01T03:49:45.477Z,8.30
2023-01-01T03:52:20.933Z,8.30
2023-01-01T03:54:47.484Z,8.30
2023-01-01T03:57:24.584Z,8.20
2023-01-01T04:00:14.853Z,8.20
2023-01-01T04:02:59.286Z,8.20
2023-01-01T04:05:26.832Z,8.20
2023-01-01T04:07:53.793Z,8.10
2023-01-01T04:10:20.678Z,8.00
2023-01-01T04:12:48.310Z,8.20
2023-01-01T04:15:15.897Z,8.20
2023-01-01T04:17:42.575Z,8.20
2023-01-01T04:20:09.705Z,8.10
2023-01-01T04:22:36.379Z,8.50
2023-01-01T04:25:03.655Z,9.20
2023-01-01T04:27:30.350Z,9.80
2023-01-01T04:29:57.027Z,8.30
2023-01-01T04:32:23.762Z,7.90
2023-01-01T04:34:50.424Z,8.20
2023-01-01T04:37:17.075Z,9.40
2023-01-01T04:39:43.757Z,9.70
2023-01-01T04:42:10.438Z,9.60
2023-01-01T04:44:37.040Z,9.60
2023-01-01T04:47:03.756Z,10.00
2023-01-01T04:49:30.455Z,10.90
2023-01-01T04:51:57.186Z,10.90
2023-01-01T04:54:23.852Z,11.50
2023-01-01T04:56:50.515Z,10.50
2023-01-01T04:59:17.155Z,10.60
2023-01-01T05:01:43.992Z,10.70
2023-01-01T05:04:12.883Z,11.00
2023-01-01T05:06:39.508Z,10.40
2023-01-01T05:09:06.178Z,10.50
2023-01-01T05:11:32.847Z,10.90
2023-01-01T05:14:00.220Z,10.70
2023-01-01T05:16:28.604Z,10.90
2023-01-01T05:18:55.711Z,10.90
2023-01-01T05:21:23.816Z,11.90
2023-01-01T05:23:54.021Z,10.60
2023-01-01T05:26:21.460Z,12.00
2023-01-01T05:28:48.232Z,10.30
2023-01-01T05:31:16.480Z,10.10
2023-01-01T05:33:43.470Z,9.20
2023-01-01T05:36:14.184Z,11.00
2023-01-01T05:38:40.932Z,9.50
2023-01-01T05:41:08.224Z,9.40
2023-01-01T05:43:35.298Z,9.70
2023-01-01T05:46:03.294Z,10.40
2023-01-01T05:48:30.430Z,9.20
2023-01-01T05:51:04.443Z,9.40
2023-01-01T05:53:31.363Z,9.50
2023-01-01T05:55:58.578Z,9.00
2023-01-01T05:58:25.688Z,9.40
2023-01-01T06:00:52.441Z,9.40
2023-01-01T06:03:19.439Z,9.30
2023-01-01T06:05:46.174Z,9.10
2023-01-01T06:08:12.852Z,9.00
2023-01-01T06:10:39.504Z,7.90
2023-01-01T06:13:12.822Z,8.60
2023-01-01T06:15:40.000Z,9.00
2023-01-01T06:18:06.726Z,9.90
2023-01-01T06:20:33.430Z,8.40
2023-01-01T06:23:00.107Z,8.30
2023-01-01T06:27:53.818Z,8.40
2023-01-01T06:30:20.477Z,7.80
2023-01-01T06:32:47.071Z,7.90
2023-01-01T06:35:13.785Z,8.00
2023-01-01T06:42:34.600Z,8.20
2023-01-01T06:45:01.229Z,7.60
2023-01-01T06:49:54.926Z,7.80
2023-01-01T06:52:21.580Z,7.00
2023-01-01T06:54:48.662Z,7.00
2023-01-01T06:57:16.038Z,7.10
2023-01-01T06:59:42.697Z,7.20
2023-01-01T07:02:10.642Z,6.90
2023-01-01T07:04:37.978Z,7.40
2023-01-01T07:07:04.638Z,7.10
2023-01-01T07:09:31.314Z,6.80
2023-01-01T07:11:57.904Z,6.90
2023-01-01T07:14:24.540Z,7.20
2023-01-01T07:16:51.230Z,7.20
2023-01-01T07:19:17.910Z,7.10
2023-01-01T07:21:45.766Z,7.10
2023-01-01T07:24:13.018Z,7.00
2023-01-01T07:26:41.084Z,7.30
2023-01-01T07:29:10.818Z,8.00
2023-01-01T07:31:38.825Z,7.20
2023-01-01T07:34:06.225Z,6.60
2023-01-01T07:36:33.234Z,6.90
2023-01-01T07:38:59.904Z,6.80
2023-01-01T07:41:26.555Z,6.90
2023-01-01T07:43:53.227Z,7.00
2023-01-01T07:46:19.993Z,6.70
2023-01-01T07:48:46.807Z,6.90
2023-01-01T07:51:13.624Z,7.00
2023-01-01T07:53:40.307Z,7.00
2023-01-01T07:56:07.442Z,7.10
2023-01-01T07:58:34.136Z,7.10
2023-01-01T08:01:00.910Z,7.10
2023-01-01T08:03:27.646Z,8.30
2023-01-01T08:05:54.343Z,7.00
2023-01-01T08:08:21.057Z,7.30
2023-01-01T08:10:47.718Z,7.20
2023-01-01T08:13:14.378Z,7.10
2023-01-01T08:15:41.093Z,7.30
2023-01-01T08:18:07.890Z,9.00
2023-01-01T08:20:34.839Z,7.40
2023-01-01T08:23:07.191Z,7.40
2023-01-01T08:25:34.386Z,7.30
2023-01-01T08:28:01.066Z,6.60
2023-01-01T08:30:27.896Z,7.30
2023-01-01T08:32:54.645Z,7.60
2023-01-01T08:35:21.345Z,7.60
2023-01-01T08:37:48.031Z,7.50
2023-01-01T08:40:14.790Z,7.60
2023-01-01T08:42:41.530Z,7.50
2023-01-01T08:45:08.475Z,7.70
2023-01-01T08:47:35.267Z,7.80
2023-01-01T08:50:07.245Z,7.50
2023-01-01T08:52:33.918Z,7.80
2023-01-01T08:55:01.177Z,8.60
2023-01-01T08:57:30.196Z,6.90
2023-01-01T08:59:56.878Z,9.40
2023-01-01T09:02:23.626Z,7.20
2023-01-01T09:04:50.361Z,7.60
2023-01-01T09:09:44.090Z,8.70
2023-01-01T09:12:11.566Z,8.30
2023-01-01T09:14:38.240Z,8.80
2023-01-01T09:17:04.890Z,8.80
2023-01-01T09:19:31.600Z,9.00
2023-01-01T09:21:58.513Z,9.20
2023-01-01T09:24:25.242Z,9.40
2023-01-01T09:26:51.947Z,10.50
2023-01-01T09:29:20.740Z,9.40
2023-01-01T09:31:48.340Z,9.90
2023-01-01T09:34:15.127Z,10.30
2023-01-01T09:36:41.937Z,10.40
2023-01-01T09:39:10.794Z,10.80
2023-01-01T09:41:40.455Z,10.60
2023-01-01T09:44:23.107Z,11.10
2023-01-01T09:46:49.844Z,11.20
2023-01-01T09:49:28.314Z,10.70
2023-01-01T09:51:58.398Z,10.30
2023-01-01T09:54:29.705Z,11.00
2023-01-01T09:56:58.624Z,11.60
2023-01-01T09:59:25.718Z,11.40
2023-01-01T10:02:01.622Z,12.80
2023-01-01T10:04:35.204Z,12.00
2023-01-01T10:07:20.702Z,12.00
2023-01-01T10:09:59.804Z,12.20
2023-01-01T10:12:32.616Z,12.40
2023-01-01T10:15:04.043Z,12.50
2023-01-01T10:17:40.092Z,13.10
2023-01-01T10:20:27.236Z,12.70
2023-01-01T10:23:03.520Z,13.00
2023-01-01T10:25:32.226Z,13.20
2023-01-01T10:28:01.062Z,14.50
2023-01-01T10:30:29.041Z,13.60
2023-01-01T10:32:56.582Z,13.60
2023-01-01T10:35:31.476Z,15.10
2023-01-01T10:38:01.758Z,14.50
2023-01-01T10:40:29.521Z,15.50
2023-01-01T10:42:57.089Z,14.40
2023-01-01T10:45:29.764Z,13.30
2023-01-01T10:48:15.458Z,15.80
2023-01-01T10:50:47.355Z,14.80
2023-01-01T10:53:21.792Z,13.70
2023-01-01T10:55:49.568Z,14.90
2023-01-01T10:58:45.641Z,13.80
2023-01-01T11:01:18.519Z,15.10
2023-01-01T11:03:54.608Z,15.50
2023-01-01T11:06:22.309Z,15.70
2023-01-01T11:08:50.519Z,15.10
2023-01-01T11:11:21.421Z,15.20
2023-01-01T11:13:52.389Z,16.10
2023-01-01T11:16:19.316Z,16.70
2023-01-01T11:18:46.407Z,18.10
2023-01-01T11:23:40.181Z,16.50
2023-01-01T11:26:06.861Z,17.40
2023-01-01T11:28:35.143Z,17.70
2023-01-01T11:31:04.151Z,16.90
2023-01-01T11:33:31.952Z,17.50
2023-01-01T11:35:58.793Z,17.00
2023-01-01T11:38:29.817Z,17.50
2023-01-01T11:41:01.477Z,15.80
2023-01-01T11:43:28.985Z,17.40
2023-01-01T11:45:57.198Z,17.20
2023-01-01T11:48:26.796Z,18.30
2023-01-01T11:50:54.994Z,17.60
2023-01-01T11:53:24.767Z,18.00
2023-01-01T11:56:01.161Z,17.00
2023-01-01T11:58:36.896Z,16.80
2023-01-01T12:01:13.309Z,16.80
2023-01-01T12:03:42.718Z,16.90
2023-01-01T12:06:09.400Z,17.40
2023-01-01T12:08:47.120Z,17.20
2023-01-01T12:11:16.885Z,17.50
2023-01-01T12:13:57.173Z,17.70
2023-01-01T12:16:47.517Z,17.80
2023-01-01T12:19:26.316Z,18.00
2023-01-01T12:21:57.555Z,17.50
2023-01-01T12:24:25.385Z,19.00
2023-01-01T12:27:10.788Z,18.40
2023-01-01T12:30:03.578Z,17.00
2023-01-01T12:32:30.190Z,17.10
2023-01-01T12:34:56.836Z,18.40
2023-01-01T12:37:32.744Z,19.90
2023-01-01T12:40:25.660Z,18.00
2023-01-01T12:43:00.621Z,18.00
2023-01-01T12:45:31.318Z,18.20
2023-01-01T12:48:04.162Z,18.30
2023-01-01T12:50:33.932Z,18.40
2023-01-01T12:53:18.914Z,18.20
2023-01-01T12:55:46.493Z,18.50
2023-01-01T12:58:20.124Z,19.00
2023-01-01T13:01:05.602Z,16.70
2023-01-01T13:03:36.533Z,16.50
2023-01-01T13:06:04.376Z,17.80
2023-01-01T13:08:32.351Z,16.20
2023-01-01T13:10:59.363Z,17.20
2023-01-01T13:13:26.377Z,16.70
2023-01-01T13:15:54.659Z,16.40
2023-01-01T13:18:23.257Z,15.50
2023-01-01T13:20:52.930Z,16.10
2023-01-01T13:23:28.750Z,15.10
2023-01-01T13:26:14.227Z,15.00
2023-01-01T13:28:40.893Z,15.00
2023-01-01T13:31:07.561Z,14.90
2023-01-01T13:33:35.148Z,14.50
2023-01-01T13:36:14.130Z,14.80
2023-01-01T13:38:44.624Z,14.60
2023-01-01T13:41:26.787Z,14.60
2023-01-01T13:44:13.667Z,14.50
2023-01-01T13:46:43.743Z,14.50
2023-01-01T13:49:35.553Z,14.60
2023-01-01T13:52:15.500Z,14.60
2023-01-01T13:54:45.132Z,14.60
2023-01-01T13:57:27.196Z,14.60
2023-01-01T13:59:58.977Z,14.50
2023-01-01T14:05:27.279Z,14.40
2023-01-01T14:07:58.238Z,14.30
2023-01-01T14:10:29.938Z,14.20
2023-01-01T14:13:02.158Z,14.20
2023-01-01T14:15:33.399Z,14.00
2023-01-01T14:18:01.484Z,14.30
2023-01-01T14:20:50.791Z,14.40
2023-01-01T14:23:28.420Z,13.90
2023-01-01T14:25:57.866Z,13.80
2023-01-01T14:28:26.448Z,14.30
2023-01-01T14:30:53.648Z,13.70
2023-01-01T14:33:31.256Z,13.30
2023-01-01T14:35:59.281Z,13.60
2023-01-01T14:38:30.801Z,14.20
2023-01-01T14:41:06.587Z,13.50
2023-01-01T14:43:35.348Z,13.50
2023-01-01T14:46:06.146Z,14.00
2023-01-01T14:48:37.554Z,13.90
2023-01-01T14:51:04.261Z,14.00
2023-01-01T14:53:32.159Z,13.50
2023-01-01T14:55:59.124Z,13.60
2023-01-01T14:58:28.283Z,14.10
2023-01-01T15:01:13.183Z,13.50
2023-01-01T15:03:39.939Z,13.90
2023-01-01T15:06:15.899Z,14.00
2023-01-01T15:08:48.515Z,13.30
2023-01-01T15:11:15.184Z,13.20
2023-01-01T15:13:53.040Z,13.70
2023-01-01T15:16:20.204Z,13.80
2023-01-01T15:18:50.701Z,13.10
2023-01-01T15:21:38.070Z,13.00
2023-01-01T15:24:11.617Z,13.00
2023-01-01T15:26:49.752Z,13.00
2023-01-01T15:29:40.678Z,12.90
2023-01-01T15:32:13.583Z,12.90
2023-01-01T15:34:47.739Z,12.80
2023-01-01T15:37:16.288Z,12.80
2023-01-01T15:39:47.149Z,13.30
2023-01-01T15:42:23.217Z,12.70
2023-01-01T15:44:49.932Z,12.60
2023-01-01T15:47:17.438Z,12.60
2023-01-01T15:49:44.102Z,12.60
2023-01-01T15:52:16.379Z,12.60
2023-01-01T15:54:45.493Z,12.60
2023-01-01T15:57:17.334Z,12.50
2023-01-01T15:59:44.273Z,12.50
2023-01-01T16:02:14.203Z,12.50
2023-01-01T16:04:44.829Z,12.50
2023-01-01T16:07:15.783Z,12.40
2023-01-01T16:09:43.796Z,13.00
2023-01-01T16:12:10.466Z,12.20
2023-01-01T16:14:37.199Z,12.20
2023-01-01T16:17:04.063Z,12.20
2023-01-01T16:19:31.872Z,12.40
2023-01-01T16:21:58.844Z,12.70
2023-01-01T16:24:25.553Z,12.20
2023-01-01T16:26:52.553Z,12.10
2023-01-01T16:29:19.258Z,12.30
2023-01-01T16:31:47.504Z,12.30
2023-01-01T16:34:14.635Z,12.20
2023-01-01T16:36:41.832Z,12.10
2023-01-01T16:39:08.550Z,12.10
2023-01-01T16:41:35.219Z,12.60
2023-01-01T16:44:01.899Z,11.90
2023-01-01T16:46:29.026Z,12.40
2023-01-01T16:48:55.831Z,11.80
2023-01-01T16:51:28.155Z,13.10
2023-01-01T16:53:55.482Z,11.90
2023-01-01T16:56:22.206Z,12.40
2023-01-01T16:58:52.123Z,12.60
2023-01-01T17:01:20.616Z,12.10
2023-01-01T17:03:47.351Z,11.90
2023-01-01T17:06:14.184Z,11.80
2023-01-01T17:08:40.883Z,11.70
2023-01-01T17:13:36.962Z,11.80
2023-01-01T17:16:03.794Z,11.70
2023-01-01T17:19:04.097Z,11.60
2023-01-01T17:21:18.060Z,12.00
2023-01-01T17:23:44.807Z,12.20
2023-01-01T17:28:38.944Z,11.20
2023-01-01T17:31:06.834Z,11.70
2023-01-01T17:33:34.021Z,11.00
2023-01-01T17:36:01.129Z,11.90
2023-01-01T17:38:27.966Z,11.90
2023-01-01T17:41:01.419Z,10.40
2023-01-01T17:43:30.485Z,11.00
2023-01-01T17:45:57.178Z,10.70
2023-01-01T17:48:23.928Z,10.40
2023-01-01T17:50:50.606Z,10.10
2023-01-01T17:53:17.240Z,11.40
2023-01-01T17:55:43.855Z,10.00
2023-01-01T17:58:10.533Z,9.90
2023-01-01T18:00:37.227Z,9.90
2023-01-01T18:03:03.944Z,9.80
2023-01-01T18:05:31.012Z,9.60
2023-01-01T18:07:57.704Z,10.30
2023-01-01T18:10:24.324Z,10.40
2023-01-01T18:12:51.027Z,10.30
2023-01-01T18:15:17.749Z,10.20
2023-01-01T18:17:44.424Z,11.40
2023-01-01T18:20:11.300Z,9.50
2023-01-01T18:22:43.361Z,10.30
2023-01-01T18:25:10.108Z,10.10
2023-01-01T18:32:33.279Z,9.90
2023-01-01T18:34:59.844Z,9.50
2023-01-01T18:37:26.426Z,9.40
2023-01-01T18:39:52.998Z,9.50
2023-01-01T18:42:40.523Z,9.60
2023-01-01T18:45:13.377Z,9.70
2023-01-01T18:47:40.113Z,9.00
2023-01-01T18:50:23.885Z,9.10
2023-01-01T18:52:52.480Z,9.90
2023-01-01T18:55:19.226Z,9.80
2023-01-01T18:57:48.306Z,9.80
2023-01-01T19:00:15.088Z,9.70
2023-01-01T19:03:04.967Z,9.70
2023-01-01T19:05:35.045Z,9.80
2023-01-01T19:08:02.254Z,9.70
2023-01-01T19:10:44.168Z,9.70
2023-01-01T19:13:24.256Z,9.70
2023-01-01T19:16:26.364Z,9.50
2023-01-01T19:18:53.421Z,9.50
2023-01-01T19:21:22.535Z,9.10
2023-01-01T19:23:50.855Z,10.90
2023-01-01T19:26:32.704Z,8.90
2023-01-01T19:29:03.604Z,9.70
2023-01-01T19:31:30.344Z,8.50
2023-01-01T19:33:57.078Z,8.30
2023-01-01T19:36:23.769Z,8.80
2023-01-01T19:38:50.423Z,10.80
2023-01-01T19:41:17.082Z,9.20
2023-01-01T19:43:43.778Z,9.00
2023-01-01T19:46:10.425Z,9.00
2023-01-01T19:48:37.141Z,9.30
2023-01-01T19:51:03.874Z,8.90
2023-01-01T19:53:30.611Z,9.40
2023-01-01T19:55:57.319Z,8.80
2023-01-01T19:58:24.028Z,9.00
2023-01-01T20:00:51.135Z,9.50
2023-01-01T20:06:05.086Z,9.10
2023-01-01T20:08:32.454Z,9.50
2023-01-01T20:10:59.415Z,9.30
2023-01-01T20:13:26.102Z,9.30
2023-01-01T20:15:52.811Z,9.30
2023-01-01T20:18:19.784Z,9.40
2023-01-01T20:21:05.218Z,9.30
2023-01-01T20:23:31.918Z,9.80
2023-01-01T20:25:58.583Z,8.90
2023-01-01T20:28:51.524Z,10.20
2023-01-01T20:31:18.228Z,9.00
2023-01-01T20:33:45.007Z,8.80
2023-01-01T20:38:57.522Z,9.00
2023-01-01T20:41:24.302Z,8.00
2023-01-01T20:43:54.995Z,8.10
2023-01-01T20:46:21.950Z,8.10
2023-01-01T20:48:48.945Z,8.40
2023-01-01T20:51:15.627Z,8.60
2023-01-01T20:53:42.847Z,8.70
2023-01-01T20:56:09.607Z,8.80
2023-01-01T20:58:36.351Z,8.40
2023-01-01T21:03:30.297Z,9.30
2023-01-01T21:05:56.975Z,9.20
2023-01-01T21:08:23.653Z,9.20
2023-01-01T21:10:50.445Z,9.00
2023-01-01T21:13:17.185Z,9.00
2023-01-01T21:15:43.889Z,9.40
2023-01-01T21:18:11.601Z,9.10
2023-01-01T21:20:39.072Z,9.40
2023-01-01T21:23:10.006Z,9.50
2023-01-01T21:25:51.205Z,9.30
2023-01-01T21:28:18.968Z,9.40
2023-01-01T21:30:50.932Z,9.30
2023-01-01T21:33:44.047Z,9.60
2023-01-01T21:36:21.817Z,9.60
2023-01-01T21:38:50.340Z,9.60
2023-01-01T21:41:19.107Z,9.00
2023-01-01T21:43:48.020Z,9.10
2023-01-01T21:46:18.198Z,9.10
2023-01-01T21:48:58.859Z,10.90
2023-01-01T21:51:30.979Z,9.60
2023-01-01T21:54:09.787Z,9.00
2023-01-01T21:56:37.517Z,9.60
2023-01-01T21:59:26.955Z,9.00
2023-01-01T22:02:13.976Z,9.60
2023-01-01T22:04:45.867Z,8.90
2023-01-01T22:07:57.148Z,9.80
2023-01-01T22:10:15.150Z,9.50
2023-01-01T22:12:41.823Z,9.60
2023-01-01T22:15:27.696Z,9.20
2023-01-01T22:18:14.703Z,9.60
2023-01-01T22:20:45.060Z,10.70
2023-01-01T22:23:17.834Z,9.70
2023-01-01T22:25:44.500Z,9.70
2023-01-01T22:28:24.378Z,9.40
2023-01-01T22:30:57.377Z,9.80
2023-01-01T22:33:36.188Z,9.90
2023-01-01T22:36:02.944Z,11.60
2023-01-01T22:38:32.173Z,11.10
2023-01-01T22:40:59.393Z,10.10
2023-01-01T22:43:29.645Z,9.30
2023-01-01T22:45:56.392Z,9.00
2023-01-01T22:48:36.837Z,8.60
2023-01-01T22:51:21.636Z,9.90
2023-01-01T22:53:48.775Z,10.00
2023-01-01T22:56:15.487Z,8.80
2023-01-01T22:58:42.158Z,8.80
2023-01-01T23:01:08.914Z,8.70
2023-01-01T23:03:35.704Z,11.30
2023-01-01T23:06:02.619Z,11.00
2023-01-01T23:08:29.875Z,9.50
2023-01-01T23:10:57.811Z,9.00
2023-01-01T23:13:43.303Z,10.20
2023-01-01T23:16:10.060Z,8.90
2023-01-01T23:18:37.351Z,9.10
2023-01-01T23:21:08.732Z,11.30
2023-01-01T23:23:36.164Z,9.60
2023-01-01T23:26:02.878Z,8.60
2023-01-01T23:28:30.615Z,9.10
2023-01-01T23:30:58.082Z,8.40
2023-01-01T23:33:24.798Z,8.70
2023-01-01T23:35:52.064Z,8.60
2023-01-01T23:38:18.937Z,9.20
2023-01-01T23:40:45.586Z,8.40
2023-01-01T23:43:12.265Z,10.60
2023-01-01T23:45:39.038Z,8.30
2023-01-01T23:48:06.136Z,9.30
2023-01-01T23:50:33.001Z,9.60
2023-01-01T23:52:59.852Z,9.00
2023-01-01T23:55:26.503Z,8.80
2023-01-01T23:57:53.206Z,8.70
